Swords, Ireland

12:54 AM GMT on February 10, 2016 (GMT +0000)
Artane, Dublin 5 | | Change Station
CLOSE
Current Station
Personal Weather Station
Location: Dublin, Dublin City
Elevation: 132 ft
Nearby Weather Stations

Elev 132 ft 53.39 °N, 6.21 °W | Updated 14 seconds ago

Rain
Rain
36.3 °F
Feels Like 29 °F
N
9.2
Wind Variable Wind from NW
Gusts 9.2 mph

Today
High -- | Low -- °F
--% Chance of Precip.
Yesterday
High -- | Low -- °F
Precip. -- in
Pressure 29.33 in
Visibility 6.2 miles
Clouds Few 700 ft
Scattered Clouds 18000 ft
Windchill 29 °F
Dew Point 35 °F
Humidity 96%
Rainfall 0.03 in
Snow Depth Not available.
7:54 AM 5:24 PM
Waxing Crescent, 3% visible
METAR EIDW 100030Z 26014KT 9999 FEW007 SCT180 02/02 Q0993 NOSIG
Pressure 29.33 in
Visibility 6.2 miles
Clouds Few 700 ft
Scattered Clouds 18000 ft
Windchill 29 °F
Dew Point 35 °F
Humidity 96%
Rainfall 0.03 in
Snow Depth Not available.
7:54 AM 5:24 PM
Waxing Crescent, 3% visible
METAR EIDW 100030Z 26014KT 9999 FEW007 SCT180 02/02 Q0993 NOSIG

10-Day Weather Forecast

Almanac

Astronomy

Feb. 10, 2016 Rise Set
Actual Time
Civil Twilight
Nautical Twilight
Astronomical Twilight
Moon
Length of Visible Light
Length of Day
Tomorrow will be .
, % of the Moon is Illuminated

Today's Extremes

Country Highs Country Lows

Community

WunderPhotos

Upload Photos

1,891,752 photos uploaded!

WunderBlog® & News

Nearby

Air Quality

  Air Quality AQ Index Pollutant
Not available.

Snow Depth

Station Depth Elevation

Earthquake Activity

City Distance Mag. Time & Date
Minimum magnitude displayed is 2.5.

Coastal Water Temperatures

Place Temperature

Stations

Nearby Weather Stations

Station Location Temp. Windchill Dew Point Humidity Wind Precip. Elev Updated Type